createdAt,value
2017-08-17T00:01:22.901Z,19.30
2017-08-17T00:03:50.759Z,19.30
2017-08-17T00:06:18.368Z,19.30
2017-08-17T00:08:45.884Z,19.20
2017-08-17T00:11:13.391Z,19.20
2017-08-17T00:13:40.931Z,19.20
2017-08-17T00:16:08.438Z,19.10
2017-08-17T00:18:35.955Z,19.10
2017-08-17T00:21:03.492Z,19.10
2017-08-17T00:23:31.010Z,19.10
2017-08-17T00:25:58.522Z,19.10
2017-08-17T00:28:26.055Z,19.10
2017-08-17T00:30:53.572Z,19.10
2017-08-17T00:33:21.078Z,19.10
2017-08-17T00:35:48.624Z,19.10
2017-08-17T00:38:16.131Z,19.20
2017-08-17T00:40:43.640Z,19.20
2017-08-17T00:43:11.166Z,19.20
2017-08-17T00:45:38.678Z,19.20
2017-08-17T00:48:06.186Z,19.20
2017-08-17T00:50:33.715Z,19.10
2017-08-17T00:53:01.221Z,19.10
2017-08-17T00:55:28.730Z,19.20
2017-08-17T00:57:56.263Z,19.30
2017-08-17T01:00:23.735Z,19.40
2017-08-17T01:02:51.279Z,19.50
2017-08-17T01:05:18.819Z,19.50
2017-08-17T01:07:46.331Z,19.50
2017-08-17T01:10:13.847Z,19.60
2017-08-17T01:12:41.378Z,19.60
2017-08-17T01:15:08.887Z,19.60
2017-08-17T01:17:36.399Z,19.60
2017-08-17T01:20:03.931Z,19.50
2017-08-17T01:22:31.446Z,19.50
2017-08-17T01:24:58.963Z,19.40
2017-08-17T01:27:26.502Z,19.30
2017-08-17T01:29:54.018Z,19.20
2017-08-17T01:32:21.895Z,19.10
2017-08-17T01:34:49.431Z,19.10
2017-08-17T01:37:16.939Z,19.00
2017-08-17T01:39:44.451Z,19.00
2017-08-17T01:42:11.995Z,19.00
2017-08-17T01:44:39.504Z,19.00
2017-08-17T01:47:31.797Z,18.90
2017-08-17T01:49:59.315Z,18.90
2017-08-17T01:52:26.819Z,18.90
2017-08-17T01:54:54.351Z,18.90
2017-08-17T01:57:21.863Z,18.90
2017-08-17T01:59:49.367Z,18.90
2017-08-17T02:02:16.906Z,18.80
2017-08-17T02:04:44.419Z,18.80
2017-08-17T02:07:11.931Z,18.80
2017-08-17T02:09:39.470Z,18.90
2017-08-17T02:12:06.982Z,18.90
2017-08-17T02:14:34.503Z,18.80
2017-08-17T02:17:02.045Z,18.80
2017-08-17T02:19:29.558Z,18.80
2017-08-17T02:21:57.070Z,18.80
2017-08-17T02:24:24.606Z,18.70
2017-08-17T02:26:52.163Z,18.70
2017-08-17T02:29:19.687Z,18.70
2017-08-17T02:31:47.207Z,18.70
2017-08-17T02:34:14.747Z,18.80
2017-08-17T02:36:42.258Z,18.80
2017-08-17T02:39:09.776Z,18.80
2017-08-17T02:41:37.335Z,18.80
2017-08-17T02:44:04.846Z,18.70
2017-08-17T02:46:32.363Z,18.70
2017-08-17T02:48:59.903Z,18.70
2017-08-17T02:51:27.410Z,18.70
2017-08-17T02:53:54.927Z,18.60
2017-08-17T02:56:22.467Z,18.60
2017-08-17T02:58:49.984Z,18.50
2017-08-17T03:01:17.504Z,18.50
2017-08-17T03:03:45.059Z,18.50
2017-08-17T03:06:12.579Z,18.50
2017-08-17T03:08:40.119Z,18.40
2017-08-17T03:11:07.671Z,18.40
2017-08-17T03:13:35.184Z,18.40
2017-08-17T03:16:02.695Z,18.40
2017-08-17T03:18:30.190Z,18.50
2017-08-17T03:20:57.724Z,18.50
2017-08-17T03:23:25.238Z,18.50
2017-08-17T03:25:52.771Z,18.40
2017-08-17T03:28:20.292Z,18.40
2017-08-17T03:30:47.798Z,18.40
2017-08-17T03:33:15.339Z,18.40
2017-08-17T03:35:42.847Z,18.40
2017-08-17T03:38:10.364Z,18.40
2017-08-17T03:40:37.899Z,18.40
2017-08-17T03:43:05.484Z,18.40
2017-08-17T03:45:32.999Z,18.30
2017-08-17T03:48:00.535Z,18.30
2017-08-17T03:50:28.043Z,18.30
2017-08-17T03:52:55.555Z,18.30
2017-08-17T03:55:23.108Z,18.30
2017-08-17T03:57:50.620Z,18.30
2017-08-17T04:00:18.134Z,18.30
2017-08-17T04:02:45.667Z,18.30
2017-08-17T04:05:13.182Z,18.40
2017-08-17T04:07:40.697Z,18.40
2017-08-17T04:10:08.245Z,18.40
2017-08-17T04:12:35.770Z,18.30
2017-08-17T04:15:03.289Z,18.30
2017-08-17T04:17:30.819Z,18.30
2017-08-17T04:19:58.331Z,18.30
2017-08-17T04:22:25.874Z,18.30
2017-08-17T04:24:53.382Z,18.30
2017-08-17T04:27:20.895Z,18.30
2017-08-17T04:29:48.431Z,18.20
2017-08-17T04:32:15.934Z,18.20
2017-08-17T04:34:43.438Z,18.30
2017-08-17T04:37:10.974Z,18.30
2017-08-17T04:39:38.479Z,18.30
2017-08-17T04:42:05.990Z,18.30
2017-08-17T04:44:33.515Z,18.30
2017-08-17T04:47:01.032Z,18.40
2017-08-17T04:49:28.587Z,18.40
2017-08-17T04:51:56.129Z,18.50
2017-08-17T04:54:23.638Z,18.60
2017-08-17T04:59:59.330Z,18.80
2017-08-17T05:02:26.868Z,18.90
2017-08-17T05:04:54.388Z,19.00
2017-08-17T05:07:21.922Z,19.00
2017-08-17T05:09:49.450Z,19.10
2017-08-17T05:12:16.987Z,19.20
2017-08-17T05:14:44.520Z,19.30
2017-08-17T05:17:12.060Z,19.40
2017-08-17T05:19:39.590Z,19.50
2017-08-17T05:22:07.123Z,19.60
2017-08-17T05:24:34.654Z,19.70
2017-08-17T05:27:02.178Z,19.70
2017-08-17T05:29:29.696Z,19.80
2017-08-17T05:31:57.236Z,19.80
2017-08-17T05:34:24.747Z,19.80
2017-08-17T05:36:52.263Z,19.80
2017-08-17T05:39:19.807Z,19.90
2017-08-17T05:41:47.318Z,19.90
2017-08-17T05:44:14.850Z,19.80
2017-08-17T05:46:42.363Z,19.80
2017-08-17T05:49:09.884Z,19.80
2017-08-17T05:51:37.418Z,19.80
2017-08-17T05:54:04.926Z,19.80
2017-08-17T05:56:32.463Z,19.90
2017-08-17T05:58:59.994Z,20.10
2017-08-17T06:01:27.523Z,20.20
2017-08-17T06:03:55.040Z,20.20
2017-08-17T06:06:22.560Z,20.30
2017-08-17T06:08:50.102Z,20.40
2017-08-17T06:11:17.635Z,20.50
2017-08-17T06:13:45.152Z,20.60
2017-08-17T06:16:12.686Z,20.70
2017-08-17T06:18:40.200Z,20.80
2017-08-17T06:21:07.715Z,20.80
2017-08-17T06:23:35.251Z,20.90
2017-08-17T06:26:02.835Z,21.00
2017-08-17T06:28:30.414Z,21.20
2017-08-17T06:30:57.931Z,21.30
2017-08-17T06:33:25.455Z,21.40
2017-08-17T06:35:52.986Z,21.60
2017-08-17T06:38:20.512Z,21.80
2017-08-17T06:40:48.047Z,22.00
2017-08-17T06:43:15.559Z,22.30
2017-08-17T06:45:43.075Z,22.40
2017-08-17T06:48:10.611Z,22.50
2017-08-17T06:50:38.147Z,22.40
2017-08-17T06:53:05.716Z,22.40
2017-08-17T06:55:33.250Z,22.20
2017-08-17T06:58:00.763Z,22.20
2017-08-17T07:00:28.275Z,22.30
2017-08-17T07:02:55.825Z,22.40
2017-08-17T07:05:23.376Z,22.50
2017-08-17T07:07:50.896Z,22.40
2017-08-17T07:10:18.435Z,22.40
2017-08-17T07:12:45.971Z,22.30
2017-08-17T07:15:13.486Z,22.30
2017-08-17T07:17:41.036Z,22.30
2017-08-17T07:20:08.580Z,22.40
2017-08-17T07:22:36.100Z,22.50
2017-08-17T07:25:03.627Z,22.60
2017-08-17T07:27:31.207Z,22.70
2017-08-17T07:29:58.746Z,22.70
2017-08-17T07:32:26.274Z,22.70
2017-08-17T07:34:53.778Z,22.90
2017-08-17T07:37:21.307Z,23.00
2017-08-17T07:39:48.851Z,23.10
2017-08-17T07:42:16.366Z,23.10
2017-08-17T07:44:43.910Z,23.20
2017-08-17T07:47:11.429Z,23.30
2017-08-17T07:49:38.966Z,23.30
2017-08-17T07:52:06.507Z,23.30
2017-08-17T07:54:34.027Z,23.30
2017-08-17T07:57:01.543Z,23.20
2017-08-17T07:59:29.289Z,23.20
2017-08-17T08:01:56.803Z,23.20
2017-08-17T08:04:24.319Z,23.20
2017-08-17T08:06:51.867Z,23.20
2017-08-17T08:09:19.382Z,23.20
2017-08-17T08:11:46.899Z,23.30
2017-08-17T08:14:14.447Z,23.40
2017-08-17T08:16:41.987Z,23.50
2017-08-17T08:19:09.500Z,23.70
2017-08-17T08:21:37.026Z,23.80
2017-08-17T08:24:04.563Z,23.90
2017-08-17T08:26:32.071Z,23.90
2017-08-17T08:28:59.602Z,23.90
2017-08-17T08:31:27.121Z,24.00
2017-08-17T08:33:54.670Z,24.10
2017-08-17T08:36:22.183Z,24.20
2017-08-17T08:38:49.701Z,24.20
2017-08-17T08:41:17.231Z,24.30
2017-08-17T08:43:44.738Z,24.40
2017-08-17T08:46:12.292Z,24.50
2017-08-17T08:48:39.836Z,24.50
2017-08-17T08:51:07.347Z,24.60
2017-08-17T08:53:34.878Z,24.80
2017-08-17T08:56:02.399Z,24.90
2017-08-17T08:58:29.915Z,24.90
2017-08-17T09:00:57.450Z,25.00
2017-08-17T09:03:24.963Z,25.00
2017-08-17T09:05:52.482Z,25.20
2017-08-17T09:08:20.021Z,25.30
2017-08-17T09:10:47.534Z,25.50
2017-08-17T09:13:15.045Z,25.60
2017-08-17T09:15:42.582Z,25.60
2017-08-17T09:18:10.123Z,25.50
2017-08-17T09:20:37.643Z,25.50
2017-08-17T09:23:05.176Z,25.70
2017-08-17T09:25:32.695Z,26.00
2017-08-17T09:28:00.233Z,26.00
2017-08-17T09:30:27.777Z,26.00
2017-08-17T09:32:55.299Z,26.00
2017-08-17T09:35:22.819Z,26.00
2017-08-17T09:37:50.363Z,25.90
2017-08-17T09:40:17.876Z,25.80
2017-08-17T09:42:45.403Z,25.50
2017-08-17T09:45:12.943Z,25.50
2017-08-17T09:47:40.455Z,25.40
2017-08-17T09:50:07.991Z,25.50
2017-08-17T09:52:35.535Z,25.60
2017-08-17T09:55:03.039Z,25.70
2017-08-17T09:57:30.591Z,25.60
2017-08-17T09:59:58.103Z,25.70
2017-08-17T10:02:25.610Z,26.00
2017-08-17T10:04:53.150Z,26.40
2017-08-17T10:07:20.667Z,26.50
2017-08-17T10:09:48.183Z,26.60
2017-08-17T10:12:15.714Z,26.30
2017-08-17T10:14:43.223Z,26.10
2017-08-17T10:17:10.726Z,25.90
2017-08-17T10:19:38.258Z,25.40
2017-08-17T10:22:05.770Z,24.90
2017-08-17T10:24:33.279Z,24.20
2017-08-17T10:27:00.823Z,23.30
2017-08-17T10:29:28.470Z,22.80
2017-08-17T10:31:56.175Z,22.60
2017-08-17T10:34:23.695Z,22.50
2017-08-17T10:36:51.364Z,22.50
2017-08-17T10:39:18.903Z,22.50
2017-08-17T10:41:46.419Z,22.50
2017-08-17T10:44:13.927Z,22.60
2017-08-17T10:46:41.421Z,22.70
2017-08-17T10:49:08.983Z,22.60
2017-08-17T10:51:36.513Z,22.70
2017-08-17T10:54:04.047Z,22.90
2017-08-17T10:56:31.562Z,23.10
2017-08-17T10:58:59.094Z,23.20
2017-08-17T11:01:26.607Z,23.40
2017-08-17T11:03:54.146Z,23.60
2017-08-17T11:06:21.667Z,23.70
2017-08-17T11:08:49.179Z,23.80
2017-08-17T11:11:16.719Z,23.90
2017-08-17T11:13:44.233Z,24.00
2017-08-17T11:16:11.752Z,24.20
2017-08-17T11:18:39.293Z,24.30
2017-08-17T11:21:06.773Z,24.40
2017-08-17T11:23:34.311Z,24.50
2017-08-17T11:26:01.851Z,24.60
2017-08-17T11:28:29.371Z,24.60
2017-08-17T11:30:56.879Z,24.70
2017-08-17T11:33:24.419Z,24.70
2017-08-17T11:35:51.931Z,24.80
2017-08-17T11:38:19.446Z,25.00
2017-08-17T11:40:46.986Z,25.00
2017-08-17T11:43:14.500Z,25.20
2017-08-17T11:45:42.016Z,25.30
2017-08-17T11:48:09.554Z,25.50
2017-08-17T11:50:37.086Z,25.70
2017-08-17T11:53:04.598Z,25.70
2017-08-17T11:55:32.136Z,25.90
2017-08-17T11:57:59.650Z,25.90
2017-08-17T12:00:27.162Z,25.90
2017-08-17T12:02:54.702Z,26.00
2017-08-17T12:05:22.214Z,26.00
2017-08-17T12:07:49.732Z,26.20
2017-08-17T12:10:17.268Z,26.20
2017-08-17T12:12:44.783Z,26.20
2017-08-17T12:15:12.298Z,26.10
2017-08-17T12:17:39.859Z,26.00
2017-08-17T12:20:07.378Z,26.00
2017-08-17T12:22:34.893Z,26.20
2017-08-17T12:25:02.434Z,26.40
2017-08-17T12:27:29.944Z,26.60
2017-08-17T12:29:57.463Z,26.60
2017-08-17T12:32:24.998Z,26.80
2017-08-17T12:34:52.515Z,26.90
2017-08-17T12:37:20.023Z,26.90
2017-08-17T12:39:47.576Z,26.80
2017-08-17T12:42:15.095Z,26.70
2017-08-17T12:44:42.607Z,26.70
2017-08-17T12:47:10.149Z,26.80
2017-08-17T12:49:37.666Z,26.80
2017-08-17T12:52:05.187Z,27.10
2017-08-17T12:54:32.723Z,27.20
2017-08-17T12:57:00.265Z,27.20
2017-08-17T12:59:27.779Z,27.20
2017-08-17T13:01:55.303Z,27.30
2017-08-17T13:04:22.839Z,27.40
2017-08-17T13:06:50.351Z,27.30
2017-08-17T13:09:17.871Z,27.30
2017-08-17T13:11:45.411Z,27.30
2017-08-17T13:14:12.935Z,27.30
2017-08-17T13:16:40.480Z,27.30
2017-08-17T13:19:07.999Z,27.50
2017-08-17T13:21:35.510Z,27.60
2017-08-17T13:24:03.059Z,27.80
2017-08-17T13:26:30.598Z,27.90
2017-08-17T13:28:58.110Z,28.00
2017-08-17T13:31:25.646Z,28.10
2017-08-17T13:33:53.154Z,28.10
2017-08-17T13:36:20.671Z,28.10
2017-08-17T13:38:48.207Z,28.20
2017-08-17T13:41:15.743Z,28.20
2017-08-17T13:43:43.258Z,28.20
2017-08-17T13:46:10.767Z,28.20
2017-08-17T13:48:38.304Z,28.10
2017-08-17T13:51:05.848Z,28.00
2017-08-17T13:53:33.363Z,28.00
2017-08-17T13:56:00.899Z,27.90
2017-08-17T13:58:28.419Z,28.00
2017-08-17T14:00:55.931Z,28.00
2017-08-17T14:03:23.471Z,28.00
2017-08-17T14:05:50.990Z,27.90
2017-08-17T14:08:18.516Z,28.00
2017-08-17T14:10:46.066Z,28.40
2017-08-17T14:13:13.575Z,28.70
2017-08-17T14:15:41.087Z,28.60
2017-08-17T14:18:08.614Z,28.40
2017-08-17T14:20:36.134Z,28.10
2017-08-17T14:23:03.652Z,28.00
2017-08-17T14:25:31.190Z,28.00
2017-08-17T14:27:58.711Z,28.00
2017-08-17T14:30:26.228Z,27.80
2017-08-17T14:32:53.766Z,27.80
2017-08-17T14:35:21.323Z,27.60
2017-08-17T14:37:48.842Z,27.60
2017-08-17T14:40:16.412Z,27.60
2017-08-17T14:42:43.929Z,27.40
2017-08-17T14:45:11.447Z,27.10
2017-08-17T14:47:38.995Z,27.20
2017-08-17T14:50:06.511Z,27.60
2017-08-17T14:52:34.033Z,27.80
2017-08-17T14:55:01.583Z,28.20
2017-08-17T14:57:29.094Z,28.30
2017-08-17T14:59:56.606Z,27.70
2017-08-17T15:02:24.151Z,27.50
2017-08-17T15:04:51.687Z,27.50
2017-08-17T15:07:19.212Z,27.60
2017-08-17T15:09:46.727Z,27.70
2017-08-17T15:12:14.516Z,27.80
2017-08-17T15:14:42.179Z,28.20
2017-08-17T15:17:09.702Z,28.50
2017-08-17T15:19:37.245Z,28.10
2017-08-17T15:22:04.782Z,27.90
2017-08-17T15:24:32.311Z,28.30
2017-08-17T15:26:59.827Z,28.50
2017-08-17T15:29:27.368Z,28.30
2017-08-17T15:31:54.882Z,28.50
2017-08-17T15:34:22.395Z,28.60
2017-08-17T15:36:49.938Z,28.60
2017-08-17T15:39:17.451Z,28.40
2017-08-17T15:41:45.472Z,28.40
2017-08-17T15:44:13.009Z,28.30
2017-08-17T15:46:40.538Z,28.50
2017-08-17T15:49:08.056Z,28.50
2017-08-17T15:51:35.591Z,28.40
2017-08-17T15:54:03.128Z,28.30
2017-08-17T15:56:30.643Z,28.10
2017-08-17T15:58:58.192Z,28.00
2017-08-17T16:01:25.702Z,28.00
2017-08-17T16:03:53.211Z,27.90
2017-08-17T16:06:20.747Z,27.90
2017-08-17T16:08:48.274Z,28.00
2017-08-17T16:11:15.820Z,28.00
2017-08-17T16:13:43.351Z,28.00
2017-08-17T16:16:10.871Z,28.00
2017-08-17T16:18:38.429Z,27.90
2017-08-17T16:21:06.006Z,27.90
2017-08-17T16:23:33.543Z,28.00
2017-08-17T16:26:01.087Z,28.10
2017-08-17T16:28:28.675Z,28.00
2017-08-17T16:30:56.210Z,27.90
2017-08-17T16:33:23.688Z,27.70
2017-08-17T16:35:51.231Z,27.40
2017-08-17T16:38:18.774Z,27.30
2017-08-17T16:40:46.286Z,27.30
2017-08-17T16:43:13.808Z,27.50
2017-08-17T16:45:41.342Z,27.40
2017-08-17T16:48:08.880Z,27.10
2017-08-17T16:50:36.409Z,26.80
2017-08-17T16:53:03.923Z,26.70
2017-08-17T16:55:31.458Z,26.70
2017-08-17T16:57:58.971Z,26.90
2017-08-17T17:00:26.482Z,27.00
2017-08-17T17:02:54.035Z,27.00
2017-08-17T17:05:21.555Z,26.90
2017-08-17T17:07:49.083Z,26.80
2017-08-17T17:10:16.627Z,26.80
2017-08-17T17:12:44.143Z,27.10
2017-08-17T17:15:11.691Z,27.10
2017-08-17T17:17:39.868Z,27.00
2017-08-17T17:20:07.387Z,26.80
2017-08-17T17:22:34.919Z,26.60
2017-08-17T17:25:02.496Z,26.40
2017-08-17T17:27:30.041Z,26.20
2017-08-17T17:29:57.555Z,26.00
2017-08-17T17:32:25.102Z,25.80
2017-08-17T17:34:52.630Z,25.70
2017-08-17T17:37:20.148Z,25.60
2017-08-17T17:39:47.691Z,25.60
2017-08-17T17:42:15.211Z,25.50
2017-08-17T17:44:42.723Z,25.50
2017-08-17T17:47:10.267Z,25.50
2017-08-17T17:49:37.783Z,25.40
2017-08-17T17:52:05.294Z,25.50
2017-08-17T17:54:32.843Z,25.50
2017-08-17T17:57:00.355Z,25.50
2017-08-17T17:59:27.866Z,25.50
2017-08-17T18:01:55.407Z,25.40
2017-08-17T18:04:22.919Z,25.30
2017-08-17T18:06:50.435Z,25.20
2017-08-17T18:09:17.979Z,25.20
2017-08-17T18:11:45.499Z,25.10
2017-08-17T18:14:13.014Z,25.00
2017-08-17T18:16:40.563Z,25.00
2017-08-17T18:19:08.092Z,24.90
2017-08-17T18:21:35.605Z,24.80
2017-08-17T18:24:03.149Z,24.70
2017-08-17T18:26:30.671Z,24.60
2017-08-17T18:28:58.188Z,24.50
2017-08-17T18:31:25.735Z,24.40
2017-08-17T18:33:53.246Z,24.30
2017-08-17T18:36:20.767Z,24.20
2017-08-17T18:38:48.319Z,24.10
2017-08-17T18:41:15.835Z,23.90
2017-08-17T18:43:43.355Z,23.80
2017-08-17T18:46:10.890Z,23.70
2017-08-17T18:48:38.408Z,23.60
2017-08-17T18:51:05.927Z,23.50
2017-08-17T18:53:33.471Z,23.30
2017-08-17T18:56:00.983Z,23.20
2017-08-17T18:58:28.495Z,23.10
2017-08-17T19:00:56.039Z,23.00
2017-08-17T19:03:23.559Z,22.90
2017-08-17T19:05:51.121Z,22.90
2017-08-17T19:08:18.663Z,22.80
2017-08-17T19:10:46.195Z,22.70
2017-08-17T19:13:13.707Z,22.60
2017-08-17T19:15:41.250Z,22.60
2017-08-17T19:18:08.767Z,22.60
2017-08-17T19:20:36.286Z,22.60
2017-08-17T19:23:03.818Z,22.50
2017-08-17T19:25:31.339Z,22.50
2017-08-17T19:27:58.863Z,22.50
2017-08-17T19:30:26.398Z,22.50
2017-08-17T19:32:53.910Z,22.40
2017-08-17T19:35:21.420Z,22.40
2017-08-17T19:37:49.007Z,22.40
2017-08-17T19:40:16.527Z,22.40
2017-08-17T19:42:44.071Z,22.30
2017-08-17T19:45:11.626Z,22.30
2017-08-17T19:47:39.138Z,22.30
2017-08-17T19:50:06.666Z,22.20
2017-08-17T19:52:34.216Z,22.20
2017-08-17T19:55:01.751Z,22.20
2017-08-17T19:57:29.266Z,22.20
2017-08-17T19:59:56.803Z,22.10
2017-08-17T20:02:24.323Z,22.10
2017-08-17T20:04:51.845Z,22.10
2017-08-17T20:07:19.394Z,22.00
2017-08-17T20:09:46.923Z,21.90
2017-08-17T20:12:14.478Z,21.80
2017-08-17T20:14:42.043Z,21.80
2017-08-17T20:17:09.558Z,21.70
2017-08-17T20:19:37.095Z,21.70
2017-08-17T20:22:04.640Z,21.60
2017-08-17T20:24:32.164Z,21.60
2017-08-17T20:26:59.691Z,21.60
2017-08-17T20:29:27.227Z,21.60
2017-08-17T20:31:54.752Z,21.60
2017-08-17T20:34:22.344Z,21.60
2017-08-17T20:36:49.923Z,21.70
2017-08-17T20:39:17.547Z,21.70
2017-08-17T20:41:45.108Z,21.80
2017-08-17T20:44:12.651Z,21.70
2017-08-17T20:46:40.171Z,21.70
2017-08-17T20:49:07.837Z,21.70
2017-08-17T20:51:35.418Z,21.70
2017-08-17T20:54:02.934Z,21.60
2017-08-17T20:56:30.411Z,21.50
2017-08-17T20:58:57.987Z,21.40
2017-08-17T21:01:25.506Z,21.40
2017-08-17T21:03:53.028Z,21.40
2017-08-17T21:06:20.599Z,21.40
2017-08-17T21:08:48.119Z,21.30
2017-08-17T21:11:15.636Z,21.20
2017-08-17T21:13:43.179Z,21.10
2017-08-17T21:16:10.704Z,21.10
2017-08-17T21:18:38.223Z,21.00
2017-08-17T21:21:05.758Z,21.00
2017-08-17T21:23:33.275Z,21.00
2017-08-17T21:26:00.819Z,21.00
2017-08-17T21:28:28.344Z,21.00
2017-08-17T21:30:55.866Z,20.90
2017-08-17T21:33:23.435Z,20.90
2017-08-17T21:35:50.959Z,20.90
2017-08-17T21:38:18.482Z,20.80
2017-08-17T21:40:46.026Z,20.80
2017-08-17T21:43:13.544Z,20.80
2017-08-17T21:45:41.084Z,20.80
2017-08-17T21:48:08.615Z,20.70
2017-08-17T21:50:36.123Z,20.70
2017-08-17T21:53:03.663Z,20.70
2017-08-17T21:55:31.167Z,20.70
2017-08-17T21:57:58.679Z,20.70
2017-08-17T22:00:26.211Z,20.70
2017-08-17T22:02:53.756Z,20.70
2017-08-17T22:05:21.291Z,20.60
2017-08-17T22:07:48.803Z,20.60
2017-08-17T22:10:16.310Z,20.60
2017-08-17T22:12:44.422Z,20.50
2017-08-17T22:15:11.940Z,20.50
2017-08-17T22:17:39.458Z,20.50
2017-08-17T22:20:06.995Z,20.50
2017-08-17T22:22:34.538Z,20.40
2017-08-17T22:25:02.052Z,20.40
2017-08-17T22:27:29.561Z,20.40
2017-08-17T22:29:57.100Z,20.40
2017-08-17T22:32:24.612Z,20.40
2017-08-17T22:34:52.114Z,20.40
2017-08-17T22:37:19.651Z,20.30
2017-08-17T22:39:47.163Z,20.30
2017-08-17T22:42:14.675Z,20.30
2017-08-17T22:44:42.216Z,20.30
2017-08-17T22:47:09.731Z,20.20
2017-08-17T22:49:37.255Z,20.20
2017-08-17T22:52:04.792Z,20.20
2017-08-17T22:54:32.267Z,20.20
2017-08-17T22:56:59.807Z,20.20
2017-08-17T22:59:27.343Z,20.10
2017-08-17T23:01:54.854Z,20.10
2017-08-17T23:04:22.367Z,20.10
2017-08-17T23:06:49.912Z,20.10
2017-08-17T23:09:17.427Z,20.10
2017-08-17T23:11:44.967Z,20.10
2017-08-17T23:14:12.487Z,20.10
2017-08-17T23:16:40.002Z,20.10
2017-08-17T23:19:07.551Z,20.10
2017-08-17T23:21:35.066Z,20.10
2017-08-17T23:24:02.592Z,20.10
2017-08-17T23:26:30.126Z,20.10
2017-08-17T23:28:57.667Z,20.10
2017-08-17T23:31:25.183Z,20.00
2017-08-17T23:33:52.719Z,20.00
2017-08-17T23:36:20.226Z,20.00
2017-08-17T23:38:47.756Z,20.00
2017-08-17T23:41:15.304Z,20.00
2017-08-17T23:43:42.828Z,20.00
2017-08-17T23:46:10.351Z,20.00
2017-08-17T23:48:37.895Z,20.00
2017-08-17T23:51:05.415Z,19.90
2017-08-17T23:53:32.929Z,19.90
2017-08-17T23:56:00.476Z,19.90
2017-08-17T23:58:27.991Z,19.90
